Time;durP1;ratioP1;P1;durP2;ratioP2;P2;SDS_P1;SDS_P2;PMS_P1;PMS_P2;Temp;Humidity;BMP_temperature;BMP_pressure;BME280_temperature;BME280_humidity;BME280_pressure;Samples;Min_cycle;Max_cycle;Signal;HPM_P1;HPM_P2
2021/06/19 00:00:40;;;;;;;13.60;11.40;;;;;;;;;;2064687;28;20602;-57
2021/06/19 00:01:41;;;;;;;14.48;11.32;;;;;;;;;;2056216;28;20193;-52
2021/06/19 00:02:41;;;;;;;13.88;12.20;;;;;;;;;;2064769;28;20283;-54
2021/06/19 00:03:41;;;;;;;13.65;11.00;;;;;;;;;;2055194;28;20167;-51
2021/06/19 00:04:42;;;;;;;13.10;10.80;;;;;;;;;;2056689;28;20703;-50
2021/06/19 00:05:42;;;;;;;11.82;10.60;;;;;;;;;;2061321;28;20197;-52
2021/06/19 00:06:42;;;;;;;11.43;10.23;;;;;;;;;;2064657;28;20266;-50
2021/06/19 00:07:42;;;;;;;12.18;10.43;;;;;;;;;;2056975;28;20178;-53
2021/06/19 00:08:43;;;;;;;12.48;10.88;;;;;;;;;;2064736;28;20185;-50
2021/06/19 00:09:43;;;;;;;12.63;11.10;;;;;;;;;;2056741;28;20240;-49
2021/06/19 00:10:43;;;;;;;12.55;10.43;;;;;;;;;;2056086;28;20170;-48
2021/06/19 00:11:43;;;;;;;14.00;11.48;;;;;;;;;;2064905;28;20178;-54
2021/06/19 00:12:44;;;;;;;15.68;11.43;;;;;;;;;;2056274;28;20182;-53
2021/06/19 00:13:45;;;;;;;18.05;12.15;;;;;;;;;;2048905;28;20227;-52
2021/06/19 00:14:45;;;;;;;16.00;12.20;;;;;;;;;;2061434;28;20266;-53
2021/06/19 00:15:45;;;;;;;14.27;11.27;;;;;;;;;;2064126;28;20165;-54
2021/06/19 00:16:46;;;;;;;12.38;10.25;;;;;;;;;;2056479;28;20217;-55
2021/06/19 00:17:47;;;;;;;11.93;10.68;;;;;;;;;;2054293;28;20651;-53
2021/06/19 00:18:47;;;;;;;17.80;15.52;;;;;;;;;;2064080;28;20204;-51
2021/06/19 00:19:47;;;;;;;14.52;11.85;;;;;;;;;;2056322;28;20250;-51
2021/06/19 00:20:48;;;;;;;13.52;12.25;;;;;;;;;;2064367;28;20177;-53
2021/06/19 00:21:48;;;;;;;13.35;10.85;;;;;;;;;;2048653;28;20209;-55
2021/06/19 00:22:48;;;;;;;15.85;12.10;;;;;;;;;;2057172;28;20190;-53
2021/06/19 00:23:49;;;;;;;13.18;11.98;;;;;;;;;;2065387;28;20170;-53
2021/06/19 00:24:49;;;;;;;14.48;11.63;;;;;;;;;;2057510;28;20225;-53
2021/06/19 00:25:49;;;;;;;13.38;12.00;;;;;;;;;;2060033;28;20269;-51
2021/06/19 00:26:50;;;;;;;17.38;12.18;;;;;;;;;;2063757;28;20212;-47
2021/06/19 00:27:51;;;;;;;13.10;11.43;;;;;;;;;;2057213;28;20361;-49
2021/06/19 00:28:51;;;;;;;14.65;11.25;;;;;;;;;;2055474;28;20230;-48
2021/06/19 00:29:51;;;;;;;13.13;11.65;;;;;;;;;;2064637;28;20174;-49
2021/06/19 00:30:51;;;;;;;11.93;10.82;;;;;;;;;;2057822;28;20356;-46
2021/06/19 00:31:52;;;;;;;12.45;11.18;;;;;;;;;;2063512;28;20664;-47
2021/06/19 00:32:52;;;;;;;15.18;11.05;;;;;;;;;;2057428;28;20170;-48
2021/06/19 00:33:53;;;;;;;14.75;11.35;;;;;;;;;;2062168;28;20192;-54
2021/06/19 00:34:53;;;;;;;15.63;11.27;;;;;;;;;;2064384;28;20189;-50
2021/06/19 00:35:53;;;;;;;15.77;11.43;;;;;;;;;;2057521;28;20194;-52
2021/06/19 00:36:53;;;;;;;14.07;11.85;;;;;;;;;;2056118;28;20182;-52
2021/06/19 00:37:53;;;;;;;15.35;12.02;;;;;;;;;;2057663;28;20261;-51
2021/06/19 00:38:54;;;;;;;14.23;11.80;;;;;;;;;;2065680;28;20176;-52
2021/06/19 00:39:54;;;;;;;14.10;11.35;;;;;;;;;;2057054;28;20704;-46
2021/06/19 00:40:54;;;;;;;13.20;11.77;;;;;;;;;;2050528;28;20183;-53
2021/06/19 00:41:55;;;;;;;12.55;10.35;;;;;;;;;;2062320;28;20205;-54
2021/06/19 00:42:59;;;;;;;14.13;11.18;;;;;;;;;;2057908;28;20178;-48
2021/06/19 00:44:00;;;;;;;12.45;11.20;;;;;;;;;;2065434;28;20625;-51
2021/06/19 00:45:00;;;;;;;14.30;10.40;;;;;;;;;;2073042;23;20372;-53
2021/06/19 00:46:01;;;;;;;14.15;10.38;;;;;;;;;;2063947;28;20212;-50
2021/06/19 00:47:01;;;;;;;14.13;10.52;;;;;;;;;;2073054;28;20225;-54
2021/06/19 00:48:05;;;;;;;13.73;10.80;;;;;;;;;;2071556;28;20188;-50
2021/06/19 00:49:05;;;;;;;15.45;11.02;;;;;;;;;;2064563;28;20169;-53
2021/06/19 00:50:07;;;;;;;11.60;10.20;;;;;;;;;;2072088;28;20184;-57
2021/06/19 00:51:07;;;;;;;15.07;11.82;;;;;;;;;;2072073;28;20692;-54
2021/06/19 00:52:07;;;;;;;11.73;9.93;;;;;;;;;;2072666;28;20173;-56
2021/06/19 00:53:08;;;;;;;11.95;10.48;;;;;;;;;;2076584;28;20529;-54
2021/06/19 00:54:08;;;;;;;14.82;10.90;;;;;;;;;;2075962;28;20693;-57
2021/06/19 00:55:09;;;;;;;12.98;11.73;;;;;;;;;;2073220;28;20192;-56
2021/06/19 00:56:09;;;;;;;13.48;12.13;;;;;;;;;;2070024;28;20261;-53
2021/06/19 00:57:10;;;;;;;11.23;9.93;;;;;;;;;;2076211;28;20234;-50
2021/06/19 00:58:11;;;;;;;12.82;10.70;;;;;;;;;;2077605;28;20200;-54
2021/06/19 00:59:13;;;;;;;15.23;10.10;;;;;;;;;;2069312;28;20170;-53
2021/06/19 01:00:14;;;;;;;10.68;9.68;;;;;;;;;;2075233;28;20222;-57
2021/06/19 01:01:14;;;;;;;13.68;10.60;;;;;;;;;;2079915;28;20257;-53
2021/06/19 01:02:14;;;;;;;11.88;10.27;;;;;;;;;;2077862;28;20211;-56
2021/06/19 01:03:15;;;;;;;13.65;10.68;;;;;;;;;;2072197;28;20243;-56
2021/06/19 01:04:15;;;;;;;13.80;10.77;;;;;;;;;;2069890;28;20161;-53
2021/06/19 01:05:15;;;;;;;15.02;11.32;;;;;;;;;;2070529;28;20200;-52
2021/06/19 01:06:15;;;;;;;11.43;10.35;;;;;;;;;;2072602;28;20164;-51
2021/06/19 01:07:16;;;;;;;12.10;10.80;;;;;;;;;;2068543;28;20272;-50
2021/06/19 01:08:16;;;;;;;17.27;10.93;;;;;;;;;;2071259;28;20177;-53
2021/06/19 01:09:16;;;;;;;11.82;10.40;;;;;;;;;;2066019;28;20231;-51
2021/06/19 01:10:17;;;;;;;14.82;11.48;;;;;;;;;;2066399;28;20684;-52
2021/06/19 01:11:21;;;;;;;12.68;11.27;;;;;;;;;;2069214;28;20169;-53
2021/06/19 01:12:25;;;;;;;13.38;11.50;;;;;;;;;;2071932;28;20171;-49
2021/06/19 01:13:25;;;;;;;12.50;11.30;;;;;;;;;;2072807;28;20676;-54
2021/06/19 01:14:25;;;;;;;11.65;10.65;;;;;;;;;;2072525;28;20220;-51
2021/06/19 01:15:26;;;;;;;11.50;10.30;;;;;;;;;;2069018;28;20181;-51
2021/06/19 01:16:26;;;;;;;14.77;11.95;;;;;;;;;;2068463;28;20576;-52
2021/06/19 01:17:26;;;;;;;14.15;11.13;;;;;;;;;;2069805;28;20200;-50
2021/06/19 01:18:27;;;;;;;12.93;11.43;;;;;;;;;;2072312;28;20975;-54
2021/06/19 01:19:27;;;;;;;12.50;11.30;;;;;;;;;;2074907;28;20177;-50
2021/06/19 01:20:29;;;;;;;15.40;11.88;;;;;;;;;;2071648;28;20219;-55
2021/06/19 01:21:30;;;;;;;12.98;11.13;;;;;;;;;;2070442;28;20256;-54
2021/06/19 01:22:31;;;;;;;11.85;10.68;;;;;;;;;;2070077;28;20168;-52
2021/06/19 01:23:31;;;;;;;13.48;11.00;;;;;;;;;;2069245;28;20546;-55
2021/06/19 01:24:32;;;;;;;13.65;10.68;;;;;;;;;;2072741;28;20165;-51
2021/06/19 01:25:34;;;;;;;13.07;11.20;;;;;;;;;;2062239;28;20189;-55
2021/06/19 01:26:37;;;;;;;11.68;10.02;;;;;;;;;;2064973;28;20188;-53
2021/06/19 01:27:38;;;;;;;11.90;10.68;;;;;;;;;;2077364;28;20168;-51
2021/06/19 01:28:38;;;;;;;14.88;11.05;;;;;;;;;;2071885;28;20189;-52
2021/06/19 01:29:38;;;;;;;12.13;9.95;;;;;;;;;;2075602;28;20196;-54
2021/06/19 01:30:39;;;;;;;12.15;10.63;;;;;;;;;;2075105;28;20212;-53
2021/06/19 01:31:39;;;;;;;13.00;10.98;;;;;;;;;;2071420;28;20208;-51
2021/06/19 01:32:40;;;;;;;18.88;11.77;;;;;;;;;;2068050;28;20855;-51
2021/06/19 01:33:41;;;;;;;15.63;10.25;;;;;;;;;;2062799;28;20218;-51
2021/06/19 01:34:41;;;;;;;12.60;10.90;;;;;;;;;;2061198;28;20165;-51
2021/06/19 01:35:42;;;;;;;10.90;9.80;;;;;;;;;;2071264;28;20165;-53
2021/06/19 01:36:42;;;;;;;11.98;10.73;;;;;;;;;;2074087;28;20227;-55
2021/06/19 01:37:44;;;;;;;13.57;11.25;;;;;;;;;;2068857;28;20173;-49
2021/06/19 01:38:46;;;;;;;12.80;10.80;;;;;;;;;;2068392;28;20177;-55
2021/06/19 01:39:46;;;;;;;11.13;10.02;;;;;;;;;;2076505;28;20200;-52
2021/06/19 01:40:46;;;;;;;15.57;10.52;;;;;;;;;;2068295;28;20177;-53
2021/06/19 01:41:46;;;;;;;11.48;10.27;;;;;;;;;;2063045;28;20178;-48
2021/06/19 01:42:47;;;;;;;11.68;10.43;;;;;;;;;;2060724;28;20774;-56
2021/06/19 01:43:48;;;;;;;11.63;10.52;;;;;;;;;;2072389;28;20170;-53
2021/06/19 01:44:49;;;;;;;13.00;10.40;;;;;;;;;;2072322;28;20264;-50
2021/06/19 01:45:49;;;;;;;14.60;10.65;;;;;;;;;;2071946;28;20169;-54
2021/06/19 01:46:51;;;;;;;12.50;11.10;;;;;;;;;;2071028;28;20743;-51
2021/06/19 01:47:51;;;;;;;13.68;10.45;;;;;;;;;;2071550;28;20228;-57
2021/06/19 01:48:52;;;;;;;11.80;10.75;;;;;;;;;;2070213;28;20231;-62
2021/06/19 01:49:52;;;;;;;13.43;10.65;;;;;;;;;;2072604;28;20180;-54
2021/06/19 01:50:52;;;;;;;12.82;11.13;;;;;;;;;;2073280;28;20634;-52
2021/06/19 01:51:53;;;;;;;11.40;10.10;;;;;;;;;;2072275;28;20177;-54
2021/06/19 01:52:53;;;;;;;12.25;10.70;;;;;;;;;;2073648;28;20693;-52
2021/06/19 01:53:54;;;;;;;12.57;10.65;;;;;;;;;;2065088;28;20561;-54
2021/06/19 01:54:54;;;;;;;12.63;10.20;;;;;;;;;;2072666;28;20204;-52
2021/06/19 01:55:54;;;;;;;14.23;10.25;;;;;;;;;;2069678;28;20174;-53
2021/06/19 01:56:55;;;;;;;14.70;11.10;;;;;;;;;;2072055;28;20257;-52
2021/06/19 01:57:56;;;;;;;11.77;10.45;;;;;;;;;;2073297;28;20808;-52
2021/06/19 01:58:56;;;;;;;12.25;10.65;;;;;;;;;;2075839;28;20645;-52
2021/06/19 02:00:14;;;;;;;13.15;11.18;;;;;;;;;;2075523;28;20191;-54
2021/06/19 02:01:15;;;;;;;13.23;10.57;;;;;;;;;;2070905;28;20554;-55
2021/06/19 02:02:19;;;;;;;11.90;10.02;;;;;;;;;;2072126;28;20173;-50
2021/06/19 02:03:19;;;;;;;12.45;10.65;;;;;;;;;;2067622;28;20195;-55
2021/06/19 02:04:22;;;;;;;12.32;11.13;;;;;;;;;;2070853;28;20173;-54
2021/06/19 02:05:24;;;;;;;14.27;10.70;;;;;;;;;;2067424;28;20208;-52
2021/06/19 02:06:24;;;;;;;15.90;10.85;;;;;;;;;;2068546;28;20176;-51
2021/06/19 02:07:24;;;;;;;12.60;10.90;;;;;;;;;;2070465;28;20166;-55
2021/06/19 02:08:25;;;;;;;16.98;10.80;;;;;;;;;;2069571;28;20188;-54
2021/06/19 02:09:25;;;;;;;14.40;10.88;;;;;;;;;;2068464;28;20249;-54
2021/06/19 02:10:26;;;;;;;15.93;10.48;;;;;;;;;;2068908;28;20203;-54
2021/06/19 02:11:27;;;;;;;13.77;10.07;;;;;;;;;;2067568;28;20185;-55
2021/06/19 02:12:27;;;;;;;14.10;10.77;;;;;;;;;;2069378;28;20177;-53
2021/06/19 02:13:28;;;;;;;15.45;9.95;;;;;;;;;;2068538;28;20198;-51
2021/06/19 02:14:28;;;;;;;12.27;10.95;;;;;;;;;;2069111;28;20520;-53
2021/06/19 02:15:29;;;;;;;15.10;10.15;;;;;;;;;;2068670;28;20573;-52
2021/06/19 02:16:29;;;;;;;11.48;10.40;;;;;;;;;;2068830;28;20189;-57
2021/06/19 02:17:29;;;;;;;11.38;10.25;;;;;;;;;;2070324;28;20166;-53
2021/06/19 02:18:29;;;;;;;12.85;10.38;;;;;;;;;;2068975;28;20665;-50
2021/06/19 02:19:30;;;;;;;14.38;10.55;;;;;;;;;;2068676;28;20166;-50
2021/06/19 02:20:30;;;;;;;11.57;10.40;;;;;;;;;;2068996;28;20173;-50
2021/06/19 02:21:31;;;;;;;11.52;9.88;;;;;;;;;;2066938;28;20273;-50
2021/06/19 02:22:31;;;;;;;15.65;9.85;;;;;;;;;;2072259;28;20765;-53
2021/06/19 02:23:31;;;;;;;10.63;9.52;;;;;;;;;;2072224;28;20637;-48
2021/06/19 02:24:31;;;;;;;10.25;9.30;;;;;;;;;;2071374;28;20260;-51
2021/06/19 02:25:32;;;;;;;10.75;9.57;;;;;;;;;;2072995;28;20184;-55
2021/06/19 02:26:32;;;;;;;14.38;9.95;;;;;;;;;;2069026;28;20267;-50
2021/06/19 02:27:32;;;;;;;12.23;8.98;;;;;;;;;;2071881;28;20161;-55
2021/06/19 02:28:32;;;;;;;10.90;9.73;;;;;;;;;;2072151;28;20193;-55
2021/06/19 02:29:33;;;;;;;10.70;9.55;;;;;;;;;;2069927;28;20176;-56
2021/06/19 02:30:37;;;;;;;14.55;9.57;;;;;;;;;;2072194;28;20645;-57
2021/06/19 02:31:37;;;;;;;12.27;8.90;;;;;;;;;;2069553;28;20207;-57
2021/06/19 02:32:37;;;;;;;11.20;9.95;;;;;;;;;;2071672;28;20172;-57
2021/06/19 02:33:38;;;;;;;12.25;10.02;;;;;;;;;;2071507;28;20169;-50
2021/06/19 02:34:38;;;;;;;15.15;10.82;;;;;;;;;;2071328;28;20260;-54
2021/06/19 02:35:40;;;;;;;11.07;9.95;;;;;;;;;;2065003;28;20220;-53
2021/06/19 02:36:41;;;;;;;12.23;10.85;;;;;;;;;;2072569;28;20165;-51
2021/06/19 02:37:41;;;;;;;10.23;8.90;;;;;;;;;;2073618;28;20252;-51
2021/06/19 02:38:41;;;;;;;10.07;9.15;;;;;;;;;;2071516;28;20181;-54
2021/06/19 02:39:41;;;;;;;12.43;8.60;;;;;;;;;;2071555;28;20178;-50
2021/06/19 02:40:42;;;;;;;13.20;10.15;;;;;;;;;;2072095;28;20180;-50
2021/06/19 02:41:43;;;;;;;10.65;9.15;;;;;;;;;;2068845;28;20180;-54
2021/06/19 02:42:43;;;;;;;10.10;9.07;;;;;;;;;;2067231;28;20186;-48
2021/06/19 02:43:43;;;;;;;17.98;10.10;;;;;;;;;;2070728;28;20172;-51
2021/06/19 02:44:43;;;;;;;13.63;9.93;;;;;;;;;;2073031;28;20197;-52
2021/06/19 02:45:44;;;;;;;9.98;8.95;;;;;;;;;;2072171;28;20166;-52
2021/06/19 02:46:44;;;;;;;14.38;11.02;;;;;;;;;;2072128;28;20200;-50
2021/06/19 02:47:45;;;;;;;12.18;10.27;;;;;;;;;;2066163;28;20562;-52
2021/06/19 02:48:46;;;;;;;14.30;9.73;;;;;;;;;;2070943;28;20201;-52
2021/06/19 02:49:46;;;;;;;11.75;9.57;;;;;;;;;;2071048;28;20169;-49
2021/06/19 02:50:46;;;;;;;13.88;10.50;;;;;;;;;;2070019;28;20225;-51
2021/06/19 02:51:46;;;;;;;10.43;8.93;;;;;;;;;;2071425;28;20170;-51
2021/06/19 02:52:47;;;;;;;11.18;10.02;;;;;;;;;;2069991;28;20181;-51
2021/06/19 02:53:47;;;;;;;15.65;10.20;;;;;;;;;;2073641;28;20629;-48
2021/06/19 02:54:47;;;;;;;9.80;8.80;;;;;;;;;;2069309;28;20244;-56
2021/06/19 02:55:48;;;;;;;11.80;9.20;;;;;;;;;;2071526;28;20256;-52
2021/06/19 02:56:48;;;;;;;11.50;9.02;;;;;;;;;;2069755;28;20554;-52
2021/06/19 02:57:48;;;;;;;9.48;8.35;;;;;;;;;;2068543;28;20178;-53
2021/06/19 02:58:48;;;;;;;14.70;8.90;;;;;;;;;;2071111;28;20178;-52
2021/06/19 02:59:49;;;;;;;10.32;8.20;;;;;;;;;;2071956;28;20273;-52
2021/06/19 03:00:50;;;;;;;9.07;8.07;;;;;;;;;;2071252;28;20204;-53
2021/06/19 03:01:50;;;;;;;9.18;8.20;;;;;;;;;;2069663;28;20185;-54
2021/06/19 03:02:51;;;;;;;12.05;8.43;;;;;;;;;;2069430;28;20169;-53
2021/06/19 03:03:51;;;;;;;11.75;9.05;;;;;;;;;;2069354;28;20181;-52
2021/06/19 03:04:51;;;;;;;11.60;8.68;;;;;;;;;;2069684;28;20213;-49
2021/06/19 03:05:52;;;;;;;9.40;8.43;;;;;;;;;;2069954;28;20258;-52
2021/06/19 03:06:52;;;;;;;12.15;9.38;;;;;;;;;;2074677;28;20208;-53
2021/06/19 03:07:53;;;;;;;9.43;8.15;;;;;;;;;;2072536;28;20215;-53
2021/06/19 03:08:54;;;;;;;11.25;8.57;;;;;;;;;;2070394;28;20659;-51
2021/06/19 03:09:54;;;;;;;10.32;9.00;;;;;;;;;;2069391;28;20177;-49
2021/06/19 03:10:54;;;;;;;11.48;9.32;;;;;;;;;;2068048;28;20193;-54
2021/06/19 03:11:55;;;;;;;10.13;8.40;;;;;;;;;;2068956;28;20189;-52
2021/06/19 03:12:55;;;;;;;10.45;8.60;;;;;;;;;;2068260;28;20165;-52
2021/06/19 03:13:57;;;;;;;9.70;8.73;;;;;;;;;;2069585;28;20184;-54
2021/06/19 03:14:57;;;;;;;10.52;8.75;;;;;;;;;;2068802;28;20212;-50
2021/06/19 03:15:57;;;;;;;9.80;8.77;;;;;;;;;;2071048;28;20173;-52
2021/06/19 03:16:58;;;;;;;13.20;9.95;;;;;;;;;;2069055;28;20181;-50
2021/06/19 03:17:58;;;;;;;13.02;9.43;;;;;;;;;;2073832;28;20177;-49
2021/06/19 03:18:59;;;;;;;11.32;8.65;;;;;;;;;;2069472;28;20172;-52
2021/06/19 03:19:59;;;;;;;12.25;8.95;;;;;;;;;;2071202;28;20184;-55
2021/06/19 03:20:59;;;;;;;10.90;9.05;;;;;;;;;;2068243;28;20649;-55
2021/06/19 03:22:00;;;;;;;11.80;9.52;;;;;;;;;;2070364;28;20213;-54
2021/06/19 03:23:01;;;;;;;12.68;9.55;;;;;;;;;;2071506;28;20204;-52
2021/06/19 03:24:02;;;;;;;12.88;8.98;;;;;;;;;;2068751;28;20175;-54
2021/06/19 03:25:02;;;;;;;11.18;9.07;;;;;;;;;;2071368;28;20212;-53
2021/06/19 03:26:02;;;;;;;11.38;8.85;;;;;;;;;;2068755;28;20185;-53
2021/06/19 03:27:03;;;;;;;13.13;9.48;;;;;;;;;;2070165;28;20189;-52
2021/06/19 03:28:04;;;;;;;12.40;9.10;;;;;;;;;;2062609;28;20202;-55
2021/06/19 03:29:05;;;;;;;11.48;8.73;;;;;;;;;;2068211;28;20252;-51
2021/06/19 03:30:06;;;;;;;11.35;9.25;;;;;;;;;;2070220;28;20165;-52
2021/06/19 03:31:06;;;;;;;10.93;9.25;;;;;;;;;;2073105;28;20180;-52
2021/06/19 03:32:07;;;;;;;9.82;8.88;;;;;;;;;;2074984;28;20747;-53
2021/06/19 03:33:09;;;;;;;9.57;8.40;;;;;;;;;;2075191;28;20229;-50
2021/06/19 03:34:09;;;;;;;14.68;9.43;;;;;;;;;;2073332;28;20172;-52
2021/06/19 03:35:10;;;;;;;9.40;8.48;;;;;;;;;;2073274;28;20287;-51
2021/06/19 03:36:10;;;;;;;11.05;9.05;;;;;;;;;;2073009;28;20177;-52
2021/06/19 03:37:10;;;;;;;10.32;8.18;;;;;;;;;;2069947;28;20177;-50
2021/06/19 03:38:11;;;;;;;9.38;8.07;;;;;;;;;;2075081;28;20671;-51
2021/06/19 03:39:15;;;;;;;12.25;8.98;;;;;;;;;;2072601;28;20579;-51
2021/06/19 03:40:16;;;;;;;9.90;8.35;;;;;;;;;;2071481;28;20579;-50
2021/06/19 03:41:16;;;;;;;12.07;8.80;;;;;;;;;;2074714;28;20181;-50
2021/06/19 03:42:16;;;;;;;12.27;8.68;;;;;;;;;;2071609;28;20199;-52
2021/06/19 03:43:17;;;;;;;13.43;9.00;;;;;;;;;;2074999;28;20174;-52
2021/06/19 03:44:17;;;;;;;18.02;8.60;;;;;;;;;;2071590;28;20176;-50
2021/06/19 03:45:18;;;;;;;9.30;8.30;;;;;;;;;;2073175;28;20204;-53
2021/06/19 03:46:18;;;;;;;10.15;8.32;;;;;;;;;;2075165;28;20180;-51
2021/06/19 03:47:18;;;;;;;9.75;8.73;;;;;;;;;;2073593;28;20200;-48
2021/06/19 03:48:19;;;;;;;9.65;8.60;;;;;;;;;;2072772;28;20672;-52
2021/06/19 03:49:19;;;;;;;10.23;8.73;;;;;;;;;;2073646;28;20254;-51
2021/06/19 03:50:20;;;;;;;13.52;9.05;;;;;;;;;;2067138;28;20180;-50
2021/06/19 03:51:20;;;;;;;9.43;8.52;;;;;;;;;;2072605;28;20192;-51
2021/06/19 03:52:20;;;;;;;12.43;8.43;;;;;;;;;;2073065;28;20175;-50
2021/06/19 03:53:21;;;;;;;9.20;8.05;;;;;;;;;;2068289;28;20165;-48
2021/06/19 03:54:21;;;;;;;8.95;8.15;;;;;;;;;;2070335;28;20174;-53
2021/06/19 03:55:22;;;;;;;11.20;8.45;;;;;;;;;;2067803;28;20184;-55
2021/06/19 03:56:23;;;;;;;11.32;8.15;;;;;;;;;;2070489;28;20181;-48
2021/06/19 03:57:24;;;;;;;10.57;7.80;;;;;;;;;;2070551;28;20173;-49
2021/06/19 03:58:24;;;;;;;9.05;7.72;;;;;;;;;;2078420;28;20180;-51
2021/06/19 03:59:24;;;;;;;12.50;8.75;;;;;;;;;;2076324;28;20184;-50
2021/06/19 04:00:25;;;;;;;12.30;8.15;;;;;;;;;;2070355;28;20712;-49
2021/06/19 04:01:25;;;;;;;10.30;8.25;;;;;;;;;;2067889;28;20165;-53
2021/06/19 04:02:26;;;;;;;10.38;8.00;;;;;;;;;;2070628;28;20676;-50
2021/06/19 04:03:26;;;;;;;8.07;7.13;;;;;;;;;;2069060;28;20176;-51
2021/06/19 04:04:26;;;;;;;8.93;6.68;;;;;;;;;;2070678;28;20176;-50
2021/06/19 04:05:27;;;;;;;7.90;7.10;;;;;;;;;;2068766;28;20760;-54
2021/06/19 04:06:27;;;;;;;7.35;6.25;;;;;;;;;;2070439;28;20169;-50
2021/06/19 04:07:27;;;;;;;9.05;6.78;;;;;;;;;;2070681;28;20653;-48
2021/06/19 04:08:28;;;;;;;6.43;5.93;;;;;;;;;;2070579;28;20660;-48
2021/06/19 04:09:28;;;;;;;7.63;6.88;;;;;;;;;;2068479;28;20235;-50
2021/06/19 04:10:29;;;;;;;6.15;5.57;;;;;;;;;;2069852;28;20177;-49
2021/06/19 04:11:29;;;;;;;10.15;6.22;;;;;;;;;;2068357;28;20166;-56
2021/06/19 04:12:29;;;;;;;5.75;5.10;;;;;;;;;;2069685;28;20683;-49
2021/06/19 04:13:30;;;;;;;6.10;4.90;;;;;;;;;;2068643;28;20679;-53
2021/06/19 04:14:30;;;;;;;5.45;5.00;;;;;;;;;;2070259;28;20199;-53
2021/06/19 04:15:30;;;;;;;6.53;4.53;;;;;;;;;;2069360;28;20745;-52
2021/06/19 04:16:30;;;;;;;7.82;4.80;;;;;;;;;;2067453;28;20208;-55
2021/06/19 04:17:31;;;;;;;5.55;4.70;;;;;;;;;;2071280;28;20209;-53
2021/06/19 04:18:31;;;;;;;4.97;4.10;;;;;;;;;;2073325;28;20173;-54
2021/06/19 04:19:31;;;;;;;5.45;4.95;;;;;;;;;;2073414;28;20200;-50
2021/06/19 04:20:31;;;;;;;6.90;4.72;;;;;;;;;;2073372;28;20673;-50
2021/06/19 04:21:32;;;;;;;5.07;4.78;;;;;;;;;;2068614;28;20524;-52
2021/06/19 04:22:32;;;;;;;5.45;4.78;;;;;;;;;;2069856;28;20173;-49
2021/06/19 04:23:33;;;;;;;5.40;4.63;;;;;;;;;;2069606;28;20174;-50
2021/06/19 04:24:34;;;;;;;6.57;5.00;;;;;;;;;;2069684;28;20247;-47
2021/06/19 04:25:34;;;;;;;7.85;4.93;;;;;;;;;;2068326;28;20169;-53
2021/06/19 04:26:34;;;;;;;5.95;5.32;;;;;;;;;;2068677;28;20244;-53
2021/06/19 04:27:53;;;;;;;5.30;4.80;;;;;;;;;;2070722;28;20224;-49
2021/06/19 04:28:54;;;;;;;5.88;4.55;;;;;;;;;;2069664;28;20175;-53
2021/06/19 04:29:54;;;;;;;8.70;5.28;;;;;;;;;;2069628;28;20170;-49
2021/06/19 04:31:01;;;;;;;7.05;5.47;;;;;;;;;;2068821;28;20224;-51
2021/06/19 04:32:01;;;;;;;5.60;4.50;;;;;;;;;;2064662;28;20745;-53
2021/06/19 04:33:02;;;;;;;8.15;5.22;;;;;;;;;;2065738;28;20297;-52
2021/06/19 04:34:02;;;;;;;5.75;5.10;;;;;;;;;;2064954;28;20181;-52
2021/06/19 04:35:03;;;;;;;6.47;5.35;;;;;;;;;;2065116;28;20182;-49
2021/06/19 04:36:05;;;;;;;6.75;5.22;;;;;;;;;;2073023;28;20177;-51
2021/06/19 04:37:06;;;;;;;6.15;5.45;;;;;;;;;;2072516;28;20200;-49
2021/06/19 04:38:06;;;;;;;6.50;5.13;;;;;;;;;;2073713;28;20214;-51
2021/06/19 04:39:06;;;;;;;8.88;5.18;;;;;;;;;;2073725;28;20185;-49
2021/06/19 04:41:30;;;;;;;5.43;5.00;;;;;;;;;;2077981;28;20613;-51
2021/06/19 04:42:36;;;;;;;5.43;5.03;;;;;;;;;;2077162;28;20169;-50
2021/06/19 04:44:26;;;;;;;5.57;4.85;;;;;;;;;;2080075;28;20835;-48
2021/06/19 04:45:02;;;;;;;5.65;5.13;;;;;;;;;;2064894;28;20375;-50
2021/06/19 04:46:02;;;;;;;7.68;5.20;;;;;;;;;;2078632;28;20175;-53
2021/06/19 04:47:02;;;;;;;6.97;5.47;;;;;;;;;;2074196;28;20662;-54
2021/06/19 04:48:04;;;;;;;8.52;5.55;;;;;;;;;;2077945;28;20179;-55
2021/06/19 04:49:04;;;;;;;8.50;4.90;;;;;;;;;;2078427;28;20862;-55
2021/06/19 04:50:06;;;;;;;7.15;5.10;;;;;;;;;;2082378;28;20191;-55
2021/06/19 04:51:06;;;;;;;10.25;5.55;;;;;;;;;;2070886;28;20172;-52
2021/06/19 04:52:07;;;;;;;6.20;5.50;;;;;;;;;;2074859;28;20674;-51
2021/06/19 04:53:07;;;;;;;7.78;5.07;;;;;;;;;;2067077;28;20172;-53
2021/06/19 04:54:08;;;;;;;7.60;5.80;;;;;;;;;;2067141;28;20225;-49
2021/06/19 04:55:10;;;;;;;6.20;5.60;;;;;;;;;;2069474;28;20816;-52
2021/06/19 04:56:10;;;;;;;5.85;5.32;;;;;;;;;;2072829;28;20168;-53
2021/06/19 04:57:10;;;;;;;7.80;5.28;;;;;;;;;;2076255;28;20172;-52
2021/06/19 04:58:11;;;;;;;6.00;5.32;;;;;;;;;;2079176;28;20708;-50
2021/06/19 04:59:11;;;;;;;6.75;5.45;;;;;;;;;;2076503;28;20184;-49
2021/06/19 05:00:12;;;;;;;8.05;5.43;;;;;;;;;;2062833;28;20178;-50
2021/06/19 05:01:12;;;;;;;10.10;5.18;;;;;;;;;;2073345;28;20176;-51
2021/06/19 05:02:12;;;;;;;5.88;5.30;;;;;;;;;;2073247;28;20622;-48
2021/06/19 05:03:17;;;;;;;5.85;5.25;;;;;;;;;;2072191;28;20189;-50
2021/06/19 05:04:17;;;;;;;5.97;5.47;;;;;;;;;;2075560;28;20209;-54
2021/06/19 05:05:18;;;;;;;6.63;5.75;;;;;;;;;;2077323;28;20207;-51
2021/06/19 05:06:18;;;;;;;8.77;5.20;;;;;;;;;;2077381;28;20227;-50
2021/06/19 05:07:19;;;;;;;6.72;5.90;;;;;;;;;;2078082;28;20200;-54
2021/06/19 05:08:19;;;;;;;8.48;5.53;;;;;;;;;;2076911;28;20177;-49
2021/06/19 05:09:19;;;;;;;7.28;5.07;;;;;;;;;;2073470;28;20598;-48
2021/06/19 05:10:20;;;;;;;7.40;5.43;;;;;;;;;;2077774;28;20171;-52
2021/06/19 05:11:20;;;;;;;6.00;5.28;;;;;;;;;;2066846;28;20196;-57
2021/06/19 05:12:20;;;;;;;8.02;5.45;;;;;;;;;;2071880;28;20177;-55
2021/06/19 05:13:20;;;;;;;4.75;4.35;;;;;;;;;;2078095;28;20168;-50
2021/06/19 05:14:20;;;;;;;5.88;5.28;;;;;;;;;;2080537;28;20168;-54
2021/06/19 05:15:24;;;;;;;5.30;4.75;;;;;;;;;;2076639;28;20251;-49
2021/06/19 05:16:24;;;;;;;6.60;4.97;;;;;;;;;;2078802;28;20204;-53
2021/06/19 05:17:24;;;;;;;6.88;5.13;;;;;;;;;;2079553;28;20199;-53
2021/06/19 05:18:25;;;;;;;6.20;5.22;;;;;;;;;;2075097;28;20185;-51
2021/06/19 05:19:25;;;;;;;5.85;4.60;;;;;;;;;;2072915;28;20169;-49
2021/06/19 05:20:30;;;;;;;7.35;5.00;;;;;;;;;;2078465;28;20597;-53
2021/06/19 05:21:31;;;;;;;4.97;4.45;;;;;;;;;;2079204;28;20551;-50
2021/06/19 05:22:31;;;;;;;5.45;4.95;;;;;;;;;;2077753;28;20215;-50
2021/06/19 05:23:31;;;;;;;4.05;3.75;;;;;;;;;;2075573;28;20168;-51
2021/06/19 05:24:31;;;;;;;7.30;4.65;;;;;;;;;;2077895;28;20249;-51
2021/06/19 05:25:31;;;;;;;8.27;4.40;;;;;;;;;;2074909;28;20197;-53
2021/06/19 05:26:32;;;;;;;4.95;4.55;;;;;;;;;;2079648;28;20168;-49
2021/06/19 05:27:32;;;;;;;5.85;4.60;;;;;;;;;;2075518;28;20162;-54
2021/06/19 05:28:32;;;;;;;4.70;4.07;;;;;;;;;;2073027;28;20207;-56
2021/06/19 05:29:32;;;;;;;5.95;4.38;;;;;;;;;;2079540;28;20181;-48
2021/06/19 05:30:33;;;;;;;4.72;4.35;;;;;;;;;;2074729;28;20200;-51
2021/06/19 05:31:33;;;;;;;5.35;4.18;;;;;;;;;;2069259;28;20232;-53
2021/06/19 05:32:33;;;;;;;4.30;3.97;;;;;;;;;;2078514;28;20176;-49
2021/06/19 05:33:34;;;;;;;4.50;4.00;;;;;;;;;;2074729;28;20176;-53
2021/06/19 05:34:34;;;;;;;4.35;3.95;;;;;;;;;;2077349;28;20172;-51
2021/06/19 05:35:34;;;;;;;4.80;4.13;;;;;;;;;;2069645;28;20185;-50
2021/06/19 05:36:35;;;;;;;4.30;3.90;;;;;;;;;;2072145;28;20264;-51
2021/06/19 05:37:35;;;;;;;3.75;3.45;;;;;;;;;;2076590;28;20471;-51
2021/06/19 05:38:35;;;;;;;4.38;3.97;;;;;;;;;;2080212;28;20173;-51
2021/06/19 05:39:36;;;;;;;4.85;3.60;;;;;;;;;;2073713;28;20177;-49
2021/06/19 05:40:36;;;;;;;4.25;3.85;;;;;;;;;;2077659;28;20561;-54
2021/06/19 05:41:37;;;;;;;4.40;3.67;;;;;;;;;;2067284;28;20185;-50
2021/06/19 05:42:37;;;;;;;4.88;4.00;;;;;;;;;;2072307;28;20231;-50
2021/06/19 05:43:38;;;;;;;4.93;4.40;;;;;;;;;;2067178;28;20244;-51
2021/06/19 05:44:38;;;;;;;3.92;3.35;;;;;;;;;;2071786;28;20177;-50
2021/06/19 05:45:38;;;;;;;4.20;3.90;;;;;;;;;;2064656;28;20220;-51
2021/06/19 05:46:38;;;;;;;5.35;4.00;;;;;;;;;;2080518;28;20176;-56
2021/06/19 05:47:39;;;;;;;4.78;3.80;;;;;;;;;;2074121;28;20746;-56
2021/06/19 05:48:39;;;;;;;4.82;4.03;;;;;;;;;;2075891;28;20177;-54
2021/06/19 05:49:40;;;;;;;4.53;3.70;;;;;;;;;;2074409;28;20205;-55
2021/06/19 05:50:41;;;;;;;4.25;3.70;;;;;;;;;;2082652;28;20176;-51
2021/06/19 05:51:41;;;;;;;5.47;4.22;;;;;;;;;;2072286;28;20743;-48
2021/06/19 05:52:41;;;;;;;5.75;4.38;;;;;;;;;;2071720;28;20204;-51
2021/06/19 05:53:42;;;;;;;3.67;3.38;;;;;;;;;;2062485;28;20188;-51
2021/06/19 05:54:42;;;;;;;4.93;3.80;;;;;;;;;;2079772;28;20257;-50
2021/06/19 05:55:42;;;;;;;4.22;3.50;;;;;;;;;;2065336;28;20550;-48
2021/06/19 05:56:43;;;;;;;3.70;3.40;;;;;;;;;;2079745;28;20188;-51
2021/06/19 05:57:44;;;;;;;4.03;3.60;;;;;;;;;;2072311;28;20292;-48
2021/06/19 05:58:44;;;;;;;3.30;3.00;;;;;;;;;;2079085;28;20242;-48
2021/06/19 05:59:44;;;;;;;5.25;3.63;;;;;;;;;;2065150;28;20189;-51